Time;durP1;ratioP1;P1;durP2;ratioP2;P2;SDS_P1;SDS_P2;PMS_P1;PMS_P2;Temp;Humidity;BMP_temperature;BMP_pressure;BME280_temperature;BME280_humidity;BME280_pressure;Samples;Min_cycle;Max_cycle;Signal;HPM_P1;HPM_P2
2022/02/13 00:00:51;;;;;;;;;;;;;;;12.78;45.22;101516.06;4942899;28;98860;-56
2022/02/13 00:03:17;;;;;;;;;;;;;;;12.76;45.33;101518.19;4943181;28;119074;-56
2022/02/13 00:05:43;;;;;;;;;;;;;;;12.74;45.23;101504.94;4924379;28;127770;-56
2022/02/13 00:08:09;;;;;;;;;;;;;;;12.74;45.24;101506.84;4923640;28;115461;-56
2022/02/13 00:10:35;;;;;;;;;;;;;;;12.72;45.41;101504.38;4924146;28;115566;-63
2022/02/13 00:13:01;;;;;;;;;;;;;;;12.71;45.40;101510.03;4923469;28;98922;-56
2022/02/13 00:15:27;;;;;;;;;;;;;;;12.70;45.06;101511.13;4935951;28;128383;-56
2022/02/13 00:17:53;;;;;;;;;;;;;;;12.68;45.29;101507.84;4932415;28;98346;-63
2022/02/13 00:20:19;;;;;;;;;;;;;;;12.66;45.19;101508.13;4922322;28;107561;-63
2022/02/13 00:22:45;;;;;;;;;;;;;;;12.64;45.21;101501.31;4926018;28;128983;-56
2022/02/13 00:25:11;;;;;;;;;;;;;;;12.63;45.23;101505.09;4942924;28;128460;-63
2022/02/13 00:27:37;;;;;;;;;;;;;;;12.62;45.27;101496.16;4941410;28;116851;-63
2022/02/13 00:30:06;;;;;;;;;;;;;;;12.61;45.25;101485.59;4942913;28;98002;-63
2022/02/13 00:32:32;;;;;;;;;;;;;;;12.60;45.24;101487.47;4942989;28;98331;-62
2022/02/13 00:34:58;;;;;;;;;;;;;;;12.57;45.04;101477.16;4934386;28;103435;-55
2022/02/13 00:37:24;;;;;;;;;;;;;;;12.56;45.16;101478.25;4922851;28;117559;-63
2022/02/13 00:39:50;;;;;;;;;;;;;;;12.56;45.09;101472.84;4923383;28;107210;-63
2022/02/13 00:42:16;;;;;;;;;;;;;;;12.54;45.20;101466.88;4922642;28;127842;-56
2022/02/13 00:44:42;;;;;;;;;;;;;;;12.53;45.13;101471.47;4922257;28;127588;-63
2022/02/13 00:47:08;;;;;;;;;;;;;;;12.51;45.11;101462.78;4923510;28;117303;-56
2022/02/13 00:49:34;;;;;;;;;;;;;;;12.50;45.25;101468.47;4923640;28;98885;-63
2022/02/13 00:52:00;;;;;;;;;;;;;;;12.49;45.20;101470.34;4922022;28;122480;-56
2022/02/13 00:54:26;;;;;;;;;;;;;;;12.47;45.25;101461.69;4923041;28;97912;-63
2022/02/13 00:56:52;;;;;;;;;;;;;;;12.47;45.18;101461.69;4924211;28;97922;-62
2022/02/13 00:59:18;;;;;;;;;;;;;;;12.46;45.15;101456.53;4926059;28;129390;-63
2022/02/13 01:01:44;;;;;;;;;;;;;;;12.45;45.29;101457.59;4937553;28;127805;-56
2022/02/13 01:04:10;;;;;;;;;;;;;;;12.43;45.15;101451.63;4941254;28;128669;-57
2022/02/13 01:06:36;;;;;;;;;;;;;;;12.42;45.09;101450.00;4941718;28;116799;-56
2022/02/13 01:09:03;;;;;;;;;;;;;;;12.41;45.14;101453.75;4972625;28;108081;-63
2022/02/13 01:11:28;;;;;;;;;;;;;;;12.40;45.15;101454.84;4942455;28;99020;-63
2022/02/13 01:13:54;;;;;;;;;;;;;;;12.38;44.98;101441.59;4941732;28;127079;-63
2022/02/13 01:16:20;;;;;;;;;;;;;;;12.36;44.92;101440.19;4942684;28;97918;-63
2022/02/13 01:18:46;;;;;;;;;;;;;;;12.38;45.11;101443.44;4926175;28;98707;-63
2022/02/13 01:21:12;;;;;;;;;;;;;;;12.36;45.28;101430.19;4921061;28;129170;-56
2022/02/13 01:23:41;;;;;;;;;;;;;;;12.34;45.15;101424.25;4921732;28;128132;-57
2022/02/13 01:26:08;;;;;;;;;;;;;;;12.33;45.01;101409.06;4922547;28;97769;-63
2022/02/13 01:28:34;;;;;;;;;;;;;;;12.33;44.97;101414.47;4922798;28;120116;-56
2022/02/13 01:31:04;;;;;;;;;;;;;;;12.33;45.24;101413.66;4922359;28;98846;-62
2022/02/13 01:33:30;;;;;;;;;;;;;;;12.32;45.13;101412.88;4922717;28;98619;-57
2022/02/13 01:35:56;;;;;;;;;;;;;;;12.32;44.90;101410.16;4923641;28;99565;-56
2022/02/13 01:38:22;;;;;;;;;;;;;;;12.32;45.15;101404.75;4923030;28;98211;-63
2022/02/13 01:40:48;;;;;;;;;;;;;;;12.31;45.01;101413.94;4922182;28;127499;-56
2022/02/13 01:43:14;;;;;;;;;;;;;;;12.32;45.17;101406.63;4923067;28;127948;-56
2022/02/13 01:45:41;;;;;;;;;;;;;;;12.31;45.16;101396.91;4930850;28;97948;-63
2022/02/13 01:48:08;;;;;;;;;;;;;;;12.31;45.17;101396.91;4938184;28;127468;-63
2022/02/13 01:50:34;;;;;;;;;;;;;;;12.31;45.22;101396.91;4923076;28;98180;-58
2022/02/13 01:53:00;;;;;;;;;;;;;;;12.29;45.26;101386.34;4922419;28;119506;-63
2022/02/13 01:55:26;;;;;;;;;;;;;;;12.29;45.14;101391.75;4961403;27;116971;-57
2022/02/13 01:57:52;;;;;;;;;;;;;;;12.29;45.05;101378.22;4942127;28;104971;-63
2022/02/13 02:00:18;;;;;;;;;;;;;;;12.28;45.13;101376.59;4940930;28;128229;-63
2022/02/13 02:02:44;;;;;;;;;;;;;;;12.27;44.93;101377.69;4941234;28;127849;-57
2022/02/13 02:05:10;;;;;;;;;;;;;;;12.26;45.20;101374.16;4935640;28;98010;-57
2022/02/13 02:07:36;;;;;;;;;;;;;;;12.26;45.10;101370.63;4921366;28;123090;-63
2022/02/13 02:10:02;;;;;;;;;;;;;;;12.26;45.09;101374.16;4921379;28;128047;-63
2022/02/13 02:12:28;;;;;;;;;;;;;;;12.26;45.19;101371.47;4923512;28;98452;-56
2022/02/13 02:14:54;;;;;;;;;;;;;;;12.25;45.20;101374.41;4932584;28;97946;-56
2022/02/13 02:17:20;;;;;;;;;;;;;;;12.25;45.24;101372.50;4920879;28;128049;-56
2022/02/13 02:19:46;;;;;;;;;;;;;;;12.24;45.26;101368.19;4921263;28;128565;-56
2022/02/13 02:22:12;;;;;;;;;;;;;;;12.25;45.24;101377.91;4923003;28;114718;-56
2022/02/13 02:24:38;;;;;;;;;;;;;;;12.24;45.23;101361.97;4919663;28;117641;-63
2022/02/13 02:27:04;;;;;;;;;;;;;;;12.24;44.99;101364.66;4921380;28;127055;-56
2022/02/13 02:29:30;;;;;;;;;;;;;;;12.23;45.04;101363.03;4921909;28;99191;-63
2022/02/13 02:31:56;;;;;;;;;;;;;;;12.21;45.23;101349.78;4921723;28;97966;-57
2022/02/13 02:34:22;;;;;;;;;;;;;;;12.23;45.06;101333.31;4925794;28;110587;-63
2022/02/13 02:36:48;;;;;;;;;;;;;;;12.21;45.18;101336.25;4921539;28;112879;-63
2022/02/13 02:39:14;;;;;;;;;;;;;;;12.20;45.22;101336.53;4923652;28;124159;-56
2022/02/13 02:41:40;;;;;;;;;;;;;;;12.21;45.24;101346.25;4938482;28;126328;-63
2022/02/13 02:44:06;;;;;;;;;;;;;;;12.19;45.24;101341.13;4940781;28;117373;-56
2022/02/13 02:46:32;;;;;;;;;;;;;;;12.20;45.25;101344.63;4940158;28;128369;-56
2022/02/13 02:48:58;;;;;;;;;;;;;;;12.19;45.23;101341.13;4940559;28;116173;-63
2022/02/13 02:51:23;;;;;;;;;;;;;;;12.19;45.17;101337.59;4940396;28;97849;-63
2022/02/13 02:53:49;;;;;;;;;;;;;;;12.18;45.16;101327.84;4940530;28;115704;-63
2022/02/13 02:56:15;;;;;;;;;;;;;;;12.18;45.39;101330.53;4940052;28;118106;-63
2022/02/13 02:58:41;;;;;;;;;;;;;;;12.18;45.49;101325.13;4939917;28;128392;-56
2022/02/13 03:01:07;;;;;;;;;;;;;;;12.15;45.24;101329.19;4937354;28;126970;-63
2022/02/13 03:03:33;;;;;;;;;;;;;;;12.16;45.55;101330.00;4941453;28;117730;-63
2022/02/13 03:06:00;;;;;;;;;;;;;;;12.15;45.18;101329.19;4940648;28;98850;-62
2022/02/13 03:08:26;;;;;;;;;;;;;;;12.16;45.29;101324.59;4934540;28;98382;-63
2022/02/13 03:10:52;;;;;;;;;;;;;;;12.13;45.46;101322.41;4951953;28;98046;-63
2022/02/13 03:13:20;;;;;;;;;;;;;;;12.14;45.44;101318.63;4920934;28;110279;-56
2022/02/13 03:15:46;;;;;;;;;;;;;;;12.13;45.33;101315.09;4921948;28;99573;-57
2022/02/13 03:18:14;;;;;;;;;;;;;;;12.12;45.53;101318.06;4921421;28;98196;-63
2022/02/13 03:20:40;;;;;;;;;;;;;;;12.13;45.28;101303.47;4919744;28;97823;-63
2022/02/13 03:23:06;;;;;;;;;;;;;;;12.11;45.69;101294.84;4921519;28;97746;-63
2022/02/13 03:25:32;;;;;;;;;;;;;;;12.12;45.86;101299.16;4951225;28;128282;-63
2022/02/13 03:27:58;;;;;;;;;;;;;;;12.12;45.39;101291.84;4938732;28;98420;-63
2022/02/13 03:30:24;;;;;;;;;;;;;;;12.11;45.24;101294.84;4927305;28;118383;-57
2022/02/13 03:32:50;;;;;;;;;;;;;;;12.10;45.47;101302.09;4920813;28;117108;-57
2022/02/13 03:35:15;;;;;;;;;;;;;;;12.09;45.73;101297.78;4930831;28;128624;-63
2022/02/13 03:37:43;;;;;;;;;;;;;;;12.09;45.64;101291.56;4920827;28;128876;-63
2022/02/13 03:40:10;;;;;;;;;;;;;;;12.09;45.60;101292.38;4922564;28;99445;-63
2022/02/13 03:42:36;;;;;;;;;;;;;;;12.08;45.41;101290.75;4921186;28;98998;-63
2022/02/13 03:45:02;;;;;;;;;;;;;;;12.08;45.41;101290.75;4925346;28;128856;-56
2022/02/13 03:47:28;;;;;;;;;;;;;;;12.08;45.60;101289.94;4939469;28;118648;-63
2022/02/13 03:49:54;;;;;;;;;;;;;;;12.09;45.48;101294.25;4938729;28;128008;-57
2022/02/13 03:52:20;;;;;;;;;;;;;;;12.07;45.86;101285.59;4940594;28;97843;-56
2022/02/13 03:54:45;;;;;;;;;;;;;;;12.06;45.89;101292.88;4939670;28;98351;-57
2022/02/13 03:57:11;;;;;;;;;;;;;;;12.06;45.78;101287.47;4940466;28;108559;-57
2022/02/13 03:59:37;;;;;;;;;;;;;;;12.06;45.77;101271.25;4933667;28;128147;-56
2022/02/13 04:02:03;;;;;;;;;;;;;;;12.07;45.73;101278.31;4922043;28;117604;-63
2022/02/13 04:04:29;;;;;;;;;;;;;;;12.05;45.54;101277.75;4929246;28;119591;-56
2022/02/13 04:06:55;;;;;;;;;;;;;;;12.06;45.74;101281.25;4922989;28;128191;-56
2022/02/13 04:09:21;;;;;;;;;;;;;;;12.06;45.88;101270.44;4923448;28;127567;-63
2022/02/13 04:11:47;;;;;;;;;;;;;;;12.06;45.92;101270.44;4923877;28;97823;-57
2022/02/13 04:14:13;;;;;;;;;;;;;;;12.05;46.12;101277.75;4923149;28;127311;-63
2022/02/13 04:16:39;;;;;;;;;;;;;;;12.04;46.12;101268.00;4922933;28;127981;-63
2022/02/13 04:19:05;;;;;;;;;;;;;;;12.04;45.64;101271.53;4925607;28;97701;-63
2022/02/13 04:21:31;;;;;;;;;;;;;;;12.03;45.65;101272.59;4943493;28;98235;-56
2022/02/13 04:23:57;;;;;;;;;;;;;;;12.03;46.18;101264.50;4922795;28;129416;-58
2022/02/13 04:26:23;;;;;;;;;;;;;;;12.03;45.84;101272.59;4921986;28;126990;-56
2022/02/13 04:28:49;;;;;;;;;;;;;;;12.04;46.00;101270.72;4923717;28;127983;-63
2022/02/13 04:31:15;;;;;;;;;;;;;;;12.02;45.79;101262.88;4926551;28;116185;-56
2022/02/13 04:33:41;;;;;;;;;;;;;;;12.03;45.83;101259.09;4943610;28;98626;-56
2022/02/13 04:36:08;;;;;;;;;;;;;;;12.03;45.81;101258.28;4923115;28;127856;-63
2022/02/13 04:38:34;;;;;;;;;;;;;;;12.03;46.17;101258.28;4924053;28;98151;-63
2022/02/13 04:41:00;;;;;;;;;;;;;;;12.03;46.00;101250.19;4923040;28;109552;-63
2022/02/13 04:43:27;;;;;;;;;;;;;;;12.02;46.19;101243.97;4924239;28;99223;-63
2022/02/13 04:45:53;;;;;;;;;;;;;;;12.02;46.14;101240.41;4922623;28;120746;-63
2022/02/13 04:48:19;;;;;;;;;;;;;;;12.00;46.12;101229.06;4923934;28;120892;-63
2022/02/13 04:50:45;;;;;;;;;;;;;;;12.01;46.12;101239.59;4922837;28;97741;-63
2022/02/13 04:53:11;;;;;;;;;;;;;;;12.01;45.91;101236.09;4923138;28;118763;-63
2022/02/13 04:55:37;;;;;;;;;;;;;;;12.01;45.98;101236.09;4937127;28;124864;-63
2022/02/13 04:58:03;;;;;;;;;;;;;;;12.01;45.88;101236.09;4942097;28;126387;-56
2022/02/13 05:00:30;;;;;;;;;;;;;;;12.01;46.14;101220.69;4925729;28;97982;-54
2022/02/13 05:02:55;;;;;;;;;;;;;;;12.01;46.22;101222.59;4922945;28;110640;-56
2022/02/13 05:05:22;;;;;;;;;;;;;;;12.01;46.24;101219.88;4921945;28;123712;-63
2022/02/13 05:07:47;;;;;;;;;;;;;;;12.00;45.91;101207.47;4922723;28;98092;-57
2022/02/13 05:10:13;;;;;;;;;;;;;;;12.00;46.25;101210.16;4923553;28;97836;-63
2022/02/13 05:12:39;;;;;;;;;;;;;;;11.99;46.32;101206.66;4921819;28;102372;-56
2022/02/13 05:15:06;;;;;;;;;;;;;;;11.98;46.09;101204.19;4922840;28;128063;-63
2022/02/13 05:17:36;;;;;;;;;;;;;;;11.98;46.14;101199.59;4922755;28;114963;-63
2022/02/13 05:20:03;;;;;;;;;;;;;;;11.98;46.02;101199.59;4923137;28;112328;-63
2022/02/13 05:22:29;;;;;;;;;;;;;;;11.98;45.92;101196.06;4921425;28;114986;-56
2022/02/13 05:24:55;;;;;;;;;;;;;;;11.96;46.17;101196.34;4922840;28;127358;-63
2022/02/13 05:27:21;;;;;;;;;;;;;;;11.97;46.21;101192.56;4923744;28;98731;-56
2022/02/13 05:29:47;;;;;;;;;;;;;;;11.99;46.03;101197.72;4932482;28;118132;-63
2022/02/13 05:32:13;;;;;;;;;;;;;;;11.97;46.10;101192.56;4924655;28;97961;-61
2022/02/13 05:34:39;;;;;;;;;;;;;;;11.98;46.27;101188.78;4922149;28;99604;-63
2022/02/13 05:37:05;;;;;;;;;;;;;;;11.98;46.13;101185.28;4921395;28;119514;-56
2022/02/13 05:39:31;;;;;;;;;;;;;;;11.97;46.02;101186.34;4923567;28;109219;-63
2022/02/13 05:41:57;;;;;;;;;;;;;;;11.97;46.18;101180.94;4923173;28;98306;-63
2022/02/13 05:44:23;;;;;;;;;;;;;;;11.96;46.13;101174.72;4921759;28;128223;-63
2022/02/13 05:46:49;;;;;;;;;;;;;;;11.96;46.28;101171.22;4923358;28;98309;-63
2022/02/13 05:49:15;;;;;;;;;;;;;;;11.95;45.96;101178.53;4921866;28;118061;-62
2022/02/13 05:51:41;;;;;;;;;;;;;;;11.95;46.19;101172.31;4921602;28;128670;-62
2022/02/13 05:54:07;;;;;;;;;;;;;;;11.95;46.17;101172.31;4923092;28;97732;-63
2022/02/13 05:56:33;;;;;;;;;;;;;;;11.94;46.30;101165.25;4930030;28;98292;-57
2022/02/13 05:58:59;;;;;;;;;;;;;;;11.92;45.98;101164.72;4940475;28;117534;-63
2022/02/13 06:01:25;;;;;;;;;;;;;;;11.93;46.48;101163.63;4940220;28;127564;-63
2022/02/13 06:03:51;;;;;;;;;;;;;;;11.92;45.86;101162.81;4939336;28;129205;-63
2022/02/13 06:06:17;;;;;;;;;;;;;;;11.93;46.06;101164.44;4939843;28;127894;-63
2022/02/13 06:08:43;;;;;;;;;;;;;;;11.92;46.28;101162.81;4926631;28;102058;-55
2022/02/13 06:11:11;;;;;;;;;;;;;;;11.92;46.17;101165.53;4922044;28;98254;-56
2022/02/13 06:13:37;;;;;;;;;;;;;;;11.92;46.19;101164.72;4921956;28;98463;-63
2022/02/13 06:16:03;;;;;;;;;;;;;;;11.92;46.38;101164.72;4921150;28;127996;-56
2022/02/13 06:18:29;;;;;;;;;;;;;;;11.91;46.24;101161.19;4930141;28;98089;-56
2022/02/13 06:20:55;;;;;;;;;;;;;;;11.91;46.21;101160.38;4924423;28;128024;-56
2022/02/13 06:23:21;;;;;;;;;;;;;;;11.93;46.21;101169.03;4940324;28;120917;-56
2022/02/13 06:25:47;;;;;;;;;;;;;;;11.92;46.35;101157.41;4936130;28;126001;-56
2022/02/13 06:28:13;;;;;;;;;;;;;;;11.92;46.02;101160.13;4931539;28;116129;-56
2022/02/13 06:30:39;;;;;;;;;;;;;;;11.94;46.22;101155.25;4925875;28;98272;-56
2022/02/13 06:33:05;;;;;;;;;;;;;;;11.94;46.28;101149.03;4921128;28;107309;-56
2022/02/13 06:35:31;;;;;;;;;;;;;;;11.93;46.18;101150.13;4920306;28;120690;-56
2022/02/13 06:37:57;;;;;;;;;;;;;;;11.96;45.96;101150.41;4921500;28;112253;-57
2022/02/13 06:40:23;;;;;;;;;;;;;;;11.96;46.28;101149.59;4922287;28;98602;-63
2022/02/13 06:42:49;;;;;;;;;;;;;;;11.97;45.87;101145.81;4919854;28;97952;-56
2022/02/13 06:45:15;;;;;;;;;;;;;;;11.97;45.94;101149.34;4920872;28;126322;-58
2022/02/13 06:47:41;;;;;;;;;;;;;;;11.97;46.23;101138.53;4922643;28;97810;-56
2022/02/13 06:50:08;;;;;;;;;;;;;;;12.01;46.04;101142.34;4918314;28;128180;-64
2022/02/13 06:52:34;;;;;;;;;;;;;;;12.03;45.95;101136.69;4930425;28;110485;-56
2022/02/13 06:55:00;;;;;;;;;;;;;;;12.04;45.96;101133.72;4937103;28;110835;-57
2022/02/13 06:57:26;;;;;;;;;;;;;;;12.06;46.07;101128.03;4936850;28;117501;-63
2022/02/13 06:59:52;;;;;;;;;;;;;;;12.09;46.07;101126.72;4934249;28;98496;-63
2022/02/13 07:02:18;;;;;;;;;;;;;;;12.11;46.30;101124.56;4934125;28;126707;-63
2022/02/13 07:04:44;;;;;;;;;;;;;;;12.12;46.32;101124.31;4936578;28;127547;-63
2022/02/13 07:07:10;;;;;;;;;;;;;;;12.14;46.22;101126.72;4935986;28;118486;-63
2022/02/13 07:09:35;;;;;;;;;;;;;;;12.16;46.15;101120.00;4931658;28;99168;-64
2022/02/13 07:12:05;;;;;;;;;;;;;;;12.19;46.26;101119.47;4922040;28;128297;-64
2022/02/13 07:14:34;;;;;;;;;;;;;;;12.22;46.10;101120.84;4932163;28;98438;-64
2022/02/13 07:17:00;;;;;;;;;;;;;;;12.26;46.15;101119.22;4934636;28;106943;-63
2022/02/13 07:19:26;;;;;;;;;;;;;;;12.31;46.01;101111.16;4936574;28;108667;-63
2022/02/13 07:21:52;;;;;;;;;;;;;;;12.38;45.96;101106.34;4937317;28;111760;-64
2022/02/13 07:24:18;;;;;;;;;;;;;;;12.42;46.19;101101.22;4935495;28;116861;-64
2022/02/13 07:26:44;;;;;;;;;;;;;;;12.46;46.08;101100.41;4936618;28;113242;-63
2022/02/13 07:29:10;;;;;;;;;;;;;;;12.51;46.18;101100.44;4933444;28;127777;-64
2022/02/13 07:31:36;;;;;;;;;;;;;;;12.61;46.16;101102.34;4933748;28;98333;-63
2022/02/13 07:34:03;;;;;;;;;;;;;;;12.74;46.13;101103.75;4948412;28;116975;-64
2022/02/13 07:36:29;;;;;;;;;;;;;;;12.86;46.07;101108.94;4950415;28;98026;-64
2022/02/13 07:38:55;;;;;;;;;;;;;;;12.96;45.68;101101.63;4936018;28;98386;-56
2022/02/13 07:41:22;;;;;;;;;;;;;;;13.06;45.88;101095.44;4934709;28;99021;-56
2022/02/13 07:43:48;;;;;;;;;;;;;;;13.19;45.80;101102.22;4940100;28;98422;-64
2022/02/13 07:46:14;;;;;;;;;;;;;;;13.34;45.69;101102.25;4934285;28;97903;-64
2022/02/13 07:48:40;;;;;;;;;;;;;;;13.63;45.47;101097.09;4939164;28;120418;-63
2022/02/13 07:51:06;;;;;;;;;;;;;;;14.08;45.04;101103.53;4939100;28;126476;-63
2022/02/13 07:53:31;;;;;;;;;;;;;;;14.33;44.49;101097.22;4939752;28;99210;-63
2022/02/13 07:55:57;;;;;;;;;;;;;;;14.51;44.76;101095.81;4935708;28;117087;-64
2022/02/13 07:58:23;;;;;;;;;;;;;;;14.66;44.65;101095.75;4933780;28;100249;-63
2022/02/13 08:00:49;;;;;;;;;;;;;;;14.86;44.67;101097.53;4939420;28;125860;-64
2022/02/13 08:03:15;;;;;;;;;;;;;;;15.13;44.43;101088.97;4940713;28;98831;-64
2022/02/13 08:05:41;;;;;;;;;;;;;;;15.52;44.00;101085.34;4935656;28;99616;-56
2022/02/13 08:08:07;;;;;;;;;;;;;;;15.87;43.48;101086.16;4929484;28;99533;-57
2022/02/13 08:10:33;;;;;;;;;;;;;;;16.19;43.67;101086.34;4938536;28;128069;-57
2022/02/13 08:12:59;;;;;;;;;;;;;;;16.51;43.34;101086.78;4938242;28;114712;-57
2022/02/13 08:15:25;;;;;;;;;;;;;;;16.93;43.23;101077.78;4938474;28;98140;-56
2022/02/13 08:17:51;;;;;;;;;;;;;;;17.38;42.81;101075.47;4938498;28;128596;-57
2022/02/13 08:20:17;;;;;;;;;;;;;;;17.83;42.46;101073.84;4931349;28;128924;-57
2022/02/13 08:22:43;;;;;;;;;;;;;;;18.29;42.18;101069.44;4933342;28;98592;-57
2022/02/13 08:25:09;;;;;;;;;;;;;;;18.66;42.06;101071.06;4930108;28;107731;-57
2022/02/13 08:27:35;;;;;;;;;;;;;;;19.03;41.84;101069.19;4939526;28;98010;-57
2022/02/13 08:30:01;;;;;;;;;;;;;;;19.39;41.65;101071.84;4935041;28;128462;-57
2022/02/13 08:32:27;;;;;;;;;;;;;;;19.76;41.83;101065.16;4940646;28;97946;-64
2022/02/13 08:34:53;;;;;;;;;;;;;;;20.15;41.49;101062.75;4935795;28;112961;-64
2022/02/13 08:37:19;;;;;;;;;;;;;;;20.56;41.49;101060.47;4917699;28;98160;-63
2022/02/13 08:39:45;;;;;;;;;;;;;;;20.97;41.46;101056.44;4939523;28;98457;-64
2022/02/13 08:42:11;;;;;;;;;;;;;;;21.36;41.14;101060.13;4938934;28;99207;-64
2022/02/13 08:44:37;;;;;;;;;;;;;;;21.79;41.09;101056.47;4939798;28;97914;-65
2022/02/13 08:47:03;;;;;;;;;;;;;;;22.22;41.11;101059.03;4939400;28;98084;-65
2022/02/13 08:49:29;;;;;;;;;;;;;;;22.64;40.81;101061.84;4932437;28;113072;-64
2022/02/13 08:51:56;;;;;;;;;;;;;;;23.08;40.70;101053.28;4937604;28;97847;-64
2022/02/13 08:54:22;;;;;;;;;;;;;;;23.50;40.81;101054.78;4938691;28;97851;-65
2022/02/13 08:56:48;;;;;;;;;;;;;;;23.92;40.72;101054.63;4939095;28;127361;-64
2022/02/13 08:59:14;;;;;;;;;;;;;;;24.33;40.31;101054.75;4935309;28;127938;-64
2022/02/13 09:01:40;;;;;;;;;;;;;;;24.72;40.08;101051.22;4931942;28;98205;-64
2022/02/13 09:04:06;;;;;;;;;;;;;;;25.11;40.10;101048.00;4937365;28;98019;-64
2022/02/13 09:06:32;;;;;;;;;;;;;;;25.50;40.04;101045.50;4937704;28;97937;-65
2022/02/13 09:08:58;;;;;;;;;;;;;;;25.86;39.51;101042.53;4936340;28;127955;-65
2022/02/13 09:11:24;;;;;;;;;;;;;;;26.22;39.46;101034.28;4933523;28;110724;-65
2022/02/13 09:13:53;;;;;;;;;;;;;;;26.57;39.40;101040.63;4925333;28;98265;-65
2022/02/13 09:16:19;;;;;;;;;;;;;;;26.94;39.13;101037.41;4936178;28;98313;-65
2022/02/13 09:18:45;;;;;;;;;;;;;;;27.28;39.06;101038.50;4934579;28;127742;-65
2022/02/13 09:21:10;;;;;;;;;;;;;;;27.59;38.51;101031.94;4953154;28;120780;-65
2022/02/13 09:23:37;;;;;;;;;;;;;;;27.87;38.43;101020.56;4937491;28;116647;-58
2022/02/13 09:26:02;;;;;;;;;;;;;;;28.09;38.12;101010.59;4916367;28;98781;-59
2022/02/13 09:28:28;;;;;;;;;;;;;;;28.34;38.00;101013.72;4920607;28;128222;-58
2022/02/13 09:30:54;;;;;;;;;;;;;;;28.64;37.92;101015.69;4925731;28;127221;-58
2022/02/13 09:33:20;;;;;;;;;;;;;;;28.94;37.51;101020.44;4939194;28;97901;-58
2022/02/13 09:35:47;;;;;;;;;;;;;;;29.26;37.06;101012.47;4926529;28;98801;-58
2022/02/13 09:38:15;;;;;;;;;;;;;;;29.49;37.12;101012.28;4917172;28;99134;-58
2022/02/13 09:40:44;;;;;;;;;;;;;;;29.75;36.83;101002.97;4937700;28;97804;-58
2022/02/13 09:43:11;;;;;;;;;;;;;;;29.94;36.36;101005.50;4938901;28;97844;-58
2022/02/13 09:45:40;;;;;;;;;;;;;;;30.14;36.22;100999.69;4936194;28;99412;-58
2022/02/13 09:48:06;;;;;;;;;;;;;;;30.35;36.32;100999.03;4897861;28;98833;-58
2022/02/13 09:50:31;;;;;;;;;;;;;;;30.53;36.36;100997.13;4950938;28;128596;-58
2022/02/13 09:52:57;;;;;;;;;;;;;;;30.77;36.19;101004.00;4929431;28;118118;-58
2022/02/13 09:55:25;;;;;;;;;;;;;;;31.01;36.07;100997.72;4937856;28;98174;-65
2022/02/13 09:58:03;;;;;;;;;;;;;;;31.28;35.67;100992.59;4938780;28;98088;-59
2022/02/13 10:00:51;;;;;;;;;;;;;;;31.64;35.29;100994.63;4934725;28;98199;-66
2022/02/13 10:03:38;;;;;;;;;;;;;;;31.98;34.84;100995.78;4930273;28;98199;-66
2022/02/13 10:06:13;;;;;;;;;;;;;;;32.57;34.52;100988.84;4936354;28;99057;-66
2022/02/13 10:08:39;;;;;;;;;;;;;;;33.17;33.65;100984.94;4938320;28;98651;-59
2022/02/13 10:11:25;;;;;;;;;;;;;;;33.63;32.85;100981.78;4943855;28;97926;-66
2022/02/13 10:13:52;;;;;;;;;;;;;;;33.87;33.03;100970.78;4938877;28;97941;-59
2022/02/13 10:16:23;;;;;;;;;;;;;;;34.14;32.68;100973.72;4929865;28;98042;-66
2022/02/13 10:18:54;;;;;;;;;;;;;;;34.06;32.23;100972.22;4936337;28;98362;-58
2022/02/13 10:21:32;;;;;;;;;;;;;;;33.52;32.81;100974.72;4937753;28;97934;-59
2022/02/13 10:24:18;;;;;;;;;;;;;;;32.83;33.54;100965.22;4938093;28;97898;-65
2022/02/13 10:26:44;;;;;;;;;;;;;;;32.17;33.98;100963.88;4937394;28;98194;-58
2022/02/13 10:29:11;;;;;;;;;;;;;;;31.66;34.17;100942.88;4928349;28;98485;-59
2022/02/13 10:31:40;;;;;;;;;;;;;;;31.23;34.19;100936.50;4925995;28;98089;-59
2022/02/13 10:34:06;;;;;;;;;;;;;;;30.85;34.31;100930.50;4936984;28;99325;-58
2022/02/13 10:36:43;;;;;;;;;;;;;;;30.66;34.18;100920.50;4931589;28;127323;-59
2022/02/13 10:39:24;;;;;;;;;;;;;;;30.77;33.61;100914.97;4936527;28;98415;-58
2022/02/13 10:41:50;;;;;;;;;;;;;;;31.44;32.72;100916.22;4937723;28;99681;-59
2022/02/13 10:44:16;;;;;;;;;;;;;;;32.55;31.58;100925.09;4930863;28;99493;-58
2022/02/13 10:46:43;;;;;;;;;;;;;;;33.78;30.19;100923.75;4936672;28;98865;-59
2022/02/13 10:49:11;;;;;;;;;;;;;;;35.00;28.44;100913.84;4936787;28;98978;-58
2022/02/13 10:51:37;;;;;;;;;;;;;;;35.72;28.13;100910.59;4935890;28;98888;-59
2022/02/13 10:54:04;;;;;;;;;;;;;;;36.11;27.70;100916.22;4935497;28;116360;-59
2022/02/13 10:56:30;;;;;;;;;;;;;;;36.35;27.28;100905.72;4929218;28;99090;-66
2022/02/13 10:58:56;;;;;;;;;;;;;;;36.59;27.37;100900.81;4921632;28;118423;-66
2022/02/13 11:01:23;;;;;;;;;;;;;;;36.58;27.05;100895.59;4936767;28;99656;-66
2022/02/13 11:03:50;;;;;;;;;;;;;;;36.85;26.92;100898.19;4938068;28;97733;-66
2022/02/13 11:06:16;;;;;;;;;;;;;;;36.99;26.57;100894.28;4956735;28;98417;-66
2022/02/13 11:08:54;;;;;;;;;;;;;;;36.90;26.41;100889.22;4936631;28;98010;-66
2022/02/13 11:11:20;;;;;;;;;;;;;;;36.41;26.96;100882.75;4937870;28;98444;-65
2022/02/13 11:13:46;;;;;;;;;;;;;;;35.90;27.18;100875.38;4955767;28;100854;-66
2022/02/13 11:16:29;;;;;;;;;;;;;;;35.40;27.42;100881.13;4940773;28;98051;-66
2022/02/13 11:19:12;;;;;;;;;;;;;;;34.75;28.13;100869.44;4936756;28;99039;-58
2022/02/13 11:21:39;;;;;;;;;;;;;;;34.11;28.64;100860.72;4946276;28;118063;-66
2022/02/13 11:24:05;;;;;;;;;;;;;;;33.49;28.89;100870.19;4918500;28;97895;-58
2022/02/13 11:26:41;;;;;;;;;;;;;;;32.66;29.09;100858.06;4916912;28;120593;-58
2022/02/13 11:29:08;;;;;;;;;;;;;;;31.79;30.23;100856.88;4923299;28;98713;-58
2022/02/13 11:31:45;;;;;;;;;;;;;;;31.13;30.73;100849.03;4939905;28;98022;-65
2022/02/13 11:34:23;;;;;;;;;;;;;;;30.53;31.04;100841.41;4936633;28;98296;-58
2022/02/13 11:36:53;;;;;;;;;;;;;;;30.02;31.05;100848.75;4934017;28;98584;-59
2022/02/13 11:39:37;;;;;;;;;;;;;;;29.61;31.66;100841.84;4933583;28;98395;-59
2022/02/13 11:42:15;;;;;;;;;;;;;;;29.17;31.75;100831.63;4939826;28;99372;-58
2022/02/13 11:44:49;;;;;;;;;;;;;;;28.76;31.75;100837.97;4933803;28;97928;-58
2022/02/13 11:47:19;;;;;;;;;;;;;;;28.33;32.25;100833.94;4940637;28;99148;-58
2022/02/13 11:50:09;;;;;;;;;;;;;;;27.87;32.11;100836.97;4936632;28;99430;-65
2022/02/13 11:52:36;;;;;;;;;;;;;;;27.36;32.78;100838.22;4940384;28;98108;-58
2022/02/13 11:55:06;;;;;;;;;;;;;;;26.98;32.90;100832.84;4939969;28;97960;-65
2022/02/13 11:57:35;;;;;;;;;;;;;;;26.63;33.02;100833.81;4936663;28;99102;-58
2022/02/13 12:00:06;;;;;;;;;;;;;;;26.29;33.46;100828.03;4934129;28;98650;-65
2022/02/13 12:02:36;;;;;;;;;;;;;;;25.99;33.81;100836.13;4935815;28;98483;-58
2022/02/13 12:05:11;;;;;;;;;;;;;;;25.70;33.89;100827.22;4936902;28;98045;-58
2022/02/13 12:07:54;;;;;;;;;;;;;;;25.45;33.93;100821.13;4931671;28;99403;-58
2022/02/13 12:10:26;;;;;;;;;;;;;;;25.18;34.63;100828.38;4940489;28;98462;-59
2022/02/13 12:12:52;;;;;;;;;;;;;;;24.90;34.81;100827.66;4933376;28;116189;-58
2022/02/13 12:15:18;;;;;;;;;;;;;;;24.64;34.92;100820.72;4936867;28;113669;-65
2022/02/13 12:17:44;;;;;;;;;;;;;;;24.40;35.18;100823.59;4928254;28;128365;-65
2022/02/13 12:20:12;;;;;;;;;;;;;;;24.15;35.47;100820.91;4938567;28;128583;-57
2022/02/13 12:22:39;;;;;;;;;;;;;;;23.92;35.72;100814.34;4943780;28;97889;-58
2022/02/13 12:25:09;;;;;;;;;;;;;;;23.71;35.68;100815.34;4944084;28;98090;-58
2022/02/13 12:27:36;;;;;;;;;;;;;;;23.50;35.81;100811.88;4939653;28;99092;-58
2022/02/13 12:30:08;;;;;;;;;;;;;;;23.31;36.02;100808.97;4931137;28;99084;-57